Time;durP1;ratioP1;P1;durP2;ratioP2;P2;SDS_P1;SDS_P2;PMS_P1;PMS_P2;Temp;Humidity;BMP_temperature;BMP_pressure;BME280_temperature;BME280_humidity;BME280_pressure;Samples;Min_cycle;Max_cycle;Signal;HPM_P1;HPM_P2
2023/07/22 00:01:48;;;;;;;1999.90;999.90;;;16.10;99.90;;;;;;5036889;28;20408;-73
2023/07/22 00:04:14;;;;;;;1999.90;999.90;;;16.00;99.90;;;;;;5036825;28;20489;-72
2023/07/22 00:06:39;;;;;;;1999.90;999.90;;;16.00;99.90;;;;;;5037173;28;20040;-70
2023/07/22 00:09:05;;;;;;;1999.90;999.90;;;15.90;99.90;;;;;;5036689;28;20022;-70
2023/07/22 00:11:31;;;;;;;1999.90;999.90;;;15.90;99.90;;;;;;5036513;28;20018;-70
2023/07/22 00:13:57;;;;;;;1999.90;999.90;;;15.90;99.90;;;;;;5036866;28;20036;-72
2023/07/22 00:16:23;;;;;;;1999.90;999.90;;;15.90;99.90;;;;;;5036608;28;20022;-72
2023/07/22 00:18:48;;;;;;;1999.90;999.90;;;15.80;99.90;;;;;;5018724;28;20124;-70
2023/07/22 00:21:15;;;;;;;1999.90;999.90;;;15.90;99.90;;;;;;5035904;28;20399;-71
2023/07/22 00:23:40;;;;;;;1999.90;999.90;;;15.90;99.90;;;;;;5018568;28;20033;-70
2023/07/22 00:26:06;;;;;;;1999.90;999.90;;;15.80;99.90;;;;;;5036331;28;20463;-71
2023/07/22 00:28:31;;;;;;;1999.90;999.90;;;15.80;99.90;;;;;;5036089;28;20037;-70
2023/07/22 00:30:57;;;;;;;1999.90;999.90;;;15.80;99.90;;;;;;5036123;28;20029;-70
2023/07/22 00:33:26;;;;;;;1999.90;999.90;;;15.70;99.90;;;;;;5036045;28;20385;-73
2023/07/22 00:35:52;;;;;;;1999.90;999.90;;;15.70;99.90;;;;;;5035355;28;20028;-73
2023/07/22 00:38:19;;;;;;;1999.90;999.90;;;15.70;99.90;;;;;;5034037;28;20030;-70
2023/07/22 00:40:45;;;;;;;1999.90;999.90;;;15.70;99.90;;;;;;5036371;28;20021;-70
2023/07/22 00:43:10;;;;;;;1999.90;999.90;;;15.60;99.90;;;;;;5035996;28;20053;-70
2023/07/22 00:45:36;;;;;;;1999.90;999.90;;;15.60;99.90;;;;;;5035467;28;20056;-73
2023/07/22 00:48:04;;;;;;;1999.90;999.90;;;15.60;99.90;;;;;;5036042;28;20087;-70
2023/07/22 00:50:32;;;;;;;1999.90;999.90;;;15.60;99.90;;;;;;5036071;28;20026;-70
2023/07/22 00:52:58;;;;;;;1999.90;999.90;;;15.60;99.90;;;;;;5035778;28;20025;-72
2023/07/22 00:55:25;;;;;;;1999.90;999.90;;;15.60;99.90;;;;;;5036229;28;20033;-70
2023/07/22 00:57:50;;;;;;;1999.90;999.90;;;15.60;99.90;;;;;;5035922;28;20021;-72
2023/07/22 01:00:16;;;;;;;1999.90;999.90;;;15.60;99.90;;;;;;5036191;28;20025;-70
2023/07/22 01:02:42;;;;;;;1999.90;999.90;;;15.50;99.90;;;;;;5035940;28;20459;-73
2023/07/22 01:05:11;;;;;;;1999.90;999.90;;;15.50;99.90;;;;;;5035591;28;20025;-70
2023/07/22 01:07:38;;;;;;;1999.90;999.90;;;15.50;99.90;;;;;;5035879;28;20547;-70
2023/07/22 01:10:05;;;;;;;1999.90;999.90;;;15.50;99.90;;;;;;5035033;28;20496;-70
2023/07/22 01:12:31;;;;;;;1999.90;999.90;;;15.40;99.90;;;;;;5035634;28;20479;-70
2023/07/22 01:14:57;;;;;;;1999.90;999.90;;;15.40;99.90;;;;;;5035326;28;20496;-73
2023/07/22 01:17:23;;;;;;;1999.90;999.90;;;15.40;99.90;;;;;;5017518;28;20492;-70
2023/07/22 01:19:49;;;;;;;1999.90;999.90;;;15.30;99.90;;;;;;5035471;28;20039;-73
2023/07/22 01:22:16;;;;;;;1999.90;999.90;;;15.30;99.90;;;;;;5035499;28;20104;-70
2023/07/22 01:24:42;;;;;;;1999.90;999.90;;;15.20;99.90;;;;;;5035298;28;20035;-73
2023/07/22 01:27:09;;;;;;;1999.90;999.90;;;15.20;99.90;;;;;;5035442;28;20108;-73
2023/07/22 01:29:36;;;;;;;1999.90;999.90;;;15.10;99.90;;;;;;5034518;28;20072;-70
2023/07/22 01:32:01;;;;;;;1999.90;999.90;;;15.10;99.90;;;;;;5034960;28;20030;-70
2023/07/22 01:34:27;;;;;;;1999.90;999.90;;;15.10;99.90;;;;;;5035059;28;20503;-70
2023/07/22 01:36:53;;;;;;;1999.90;999.90;;;15.10;99.90;;;;;;5034068;28;20057;-71
2023/07/22 01:39:21;;;;;;;1999.90;999.90;;;15.20;99.90;;;;;;5034888;28;20108;-73
2023/07/22 01:41:47;;;;;;;1999.90;999.90;;;15.20;99.90;;;;;;5034895;28;20033;-70
2023/07/22 01:44:14;;;;;;;1999.90;999.90;;;15.30;99.90;;;;;;5034940;28;20029;-70
2023/07/22 01:46:41;;;;;;;1999.90;999.90;;;15.40;99.90;;;;;;5034510;28;20056;-70
2023/07/22 01:49:10;;;;;;;1999.90;999.90;;;15.50;99.90;;;;;;5016583;28;20025;-70
2023/07/22 01:51:37;;;;;;;1999.90;999.90;;;15.60;99.90;;;;;;5035141;28;20062;-72
2023/07/22 01:54:03;;;;;;;1999.90;999.90;;;15.60;99.90;;;;;;5034625;28;20028;-73
2023/07/22 01:56:29;;;;;;;1999.90;999.90;;;15.60;99.90;;;;;;5035058;28;20495;-71
2023/07/22 01:58:55;;;;;;;1999.90;999.90;;;15.70;99.90;;;;;;5016800;28;20064;-72
2023/07/22 02:01:20;;;;;;;1999.90;999.90;;;15.80;99.90;;;;;;5034619;28;20041;-72
2023/07/22 02:03:46;;;;;;;1999.90;999.90;;;15.80;99.90;;;;;;5034900;28;20037;-73
2023/07/22 02:06:12;;;;;;;1999.90;999.90;;;15.70;99.90;;;;;;5034790;28;20021;-72
2023/07/22 02:08:38;;;;;;;1999.90;999.90;;;15.70;99.90;;;;;;5034619;28;20060;-70
2023/07/22 02:11:06;;;;;;;1999.90;999.90;;;15.70;99.90;;;;;;5012967;28;20100;-70
2023/07/22 02:13:32;;;;;;;1999.90;999.90;;;15.60;99.90;;;;;;5014414;28;20026;-70
2023/07/22 02:15:58;;;;;;;1999.90;999.90;;;15.60;99.90;;;;;;5013351;28;20026;-70
2023/07/22 02:18:24;;;;;;;1999.90;999.90;;;15.50;99.90;;;;;;5014460;28;20451;-71
2023/07/22 02:20:50;;;;;;;1999.90;999.90;;;15.50;99.90;;;;;;5013857;28;20137;-70
2023/07/22 02:23:15;;;;;;;1999.90;999.90;;;15.50;99.90;;;;;;4996809;28;20065;-70
2023/07/22 02:25:41;;;;;;;1999.90;999.90;;;15.50;99.90;;;;;;5006763;28;20076;-70
2023/07/22 02:28:07;;;;;;;1999.90;999.90;;;15.40;99.90;;;;;;5014180;28;20117;-69
2023/07/22 02:30:36;;;;;;;1999.90;999.90;;;15.40;99.90;;;;;;5014368;28;20068;-72
2023/07/22 02:33:02;;;;;;;1999.90;999.90;;;15.40;99.90;;;;;;5013647;28;20022;-70
2023/07/22 02:35:28;;;;;;;1999.90;999.90;;;15.40;99.90;;;;;;5015782;28;20046;-70
2023/07/22 02:37:54;;;;;;;1999.90;999.90;;;15.40;99.90;;;;;;5033300;28;20076;-72
2023/07/22 02:40:20;;;;;;;1999.90;999.90;;;15.30;99.90;;;;;;5034023;28;20033;-70
2023/07/22 02:42:45;;;;;;;1999.90;999.90;;;15.30;99.90;;;;;;5033497;28;20049;-72
2023/07/22 02:45:12;;;;;;;1999.90;999.90;;;15.40;99.90;;;;;;5033643;28;20031;-70
2023/07/22 02:47:38;;;;;;;1999.90;999.90;;;15.40;99.90;;;;;;5033791;28;20044;-70
2023/07/22 02:50:06;;;;;;;1999.90;999.90;;;15.40;99.90;;;;;;5033699;28;20014;-70
2023/07/22 02:52:32;;;;;;;1999.90;999.90;;;15.40;99.90;;;;;;5033645;28;20032;-70
2023/07/22 02:55:04;;;;;;;1999.90;999.90;;;15.30;99.90;;;;;;5033501;28;20021;-70
2023/07/22 02:57:30;;;;;;;1999.90;999.90;;;15.30;99.90;;;;;;5033414;28;20037;-70
2023/07/22 02:59:56;;;;;;;1999.90;999.90;;;15.20;99.90;;;;;;5033716;28;20033;-70
2023/07/22 03:02:22;;;;;;;1999.90;999.90;;;15.20;99.90;;;;;;5033661;28;20025;-72
2023/07/22 03:04:47;;;;;;;1999.90;999.90;;;15.10;99.90;;;;;;5033718;28;20377;-72
2023/07/22 03:07:13;;;;;;;1999.90;999.90;;;15.10;99.90;;;;;;5033355;28;20204;-70
2023/07/22 03:09:38;;;;;;;1999.90;999.90;;;15.10;99.90;;;;;;5032886;28;20033;-72
2023/07/22 03:12:04;;;;;;;1999.90;999.90;;;15.10;99.90;;;;;;5033722;28;20029;-70
2023/07/22 03:14:37;;;;;;;1999.90;999.90;;;15.10;99.90;;;;;;5033072;28;20140;-72
2023/07/22 03:17:03;;;;;;;1999.90;999.90;;;15.10;99.90;;;;;;5033396;28;20032;-70
2023/07/22 03:19:29;;;;;;;1999.90;999.90;;;15.10;99.90;;;;;;5033258;28;20031;-70
2023/07/22 03:21:55;;;;;;;1999.90;999.90;;;15.20;99.90;;;;;;5032585;28;20025;-70
2023/07/22 03:24:21;;;;;;;1999.90;999.90;;;15.20;99.90;;;;;;5032984;28;20396;-72
2023/07/22 03:26:46;;;;;;;1999.90;999.90;;;15.20;99.90;;;;;;5015304;28;20032;-70
2023/07/22 03:29:12;;;;;;;1999.90;999.90;;;15.20;99.90;;;;;;5032910;28;20029;-70
2023/07/22 03:31:37;;;;;;;1999.90;999.90;;;15.20;99.90;;;;;;5032796;28;20404;-70
2023/07/22 03:34:04;;;;;;;1999.90;999.90;;;15.20;99.90;;;;;;5032163;28;20025;-72
2023/07/22 03:36:33;;;;;;;1999.90;999.90;;;15.10;99.90;;;;;;5031801;28;20387;-70
2023/07/22 03:38:59;;;;;;;1999.90;999.90;;;15.10;99.90;;;;;;5032986;28;20094;-70
2023/07/22 03:41:25;;;;;;;1999.90;999.90;;;15.10;99.90;;;;;;5032782;28;20025;-72
2023/07/22 03:43:51;;;;;;;1999.90;999.90;;;15.00;99.90;;;;;;5032806;28;20049;-71
2023/07/22 03:46:16;;;;;;;1999.90;999.90;;;15.00;99.90;;;;;;5032904;28;20034;-70
2023/07/22 03:48:42;;;;;;;1999.90;999.90;;;14.90;99.90;;;;;;5032708;28;20064;-72
2023/07/22 03:51:07;;;;;;;1999.90;999.90;;;14.90;99.90;;;;;;5015058;28;20030;-70
2023/07/22 03:53:33;;;;;;;1999.90;999.90;;;14.90;99.90;;;;;;5032991;28;20025;-70
2023/07/22 03:55:59;;;;;;;1999.90;999.90;;;14.90;99.90;;;;;;5033043;28;20057;-70
2023/07/22 03:58:24;;;;;;;1999.90;999.90;;;15.00;99.90;;;;;;5032517;28;20025;-70
2023/07/22 04:00:50;;;;;;;1999.90;999.90;;;15.00;99.90;;;;;;5019311;28;20403;-71
2023/07/22 04:03:15;;;;;;;1999.90;999.90;;;14.90;99.90;;;;;;5034831;28;20037;-70
2023/07/22 04:05:41;;;;;;;1999.90;999.90;;;14.90;99.90;;;;;;5032534;28;20043;-70
2023/07/22 04:08:07;;;;;;;1999.90;999.90;;;15.00;99.90;;;;;;5032962;28;20029;-70
2023/07/22 04:10:32;;;;;;;1999.90;999.90;;;15.00;99.90;;;;;;5032275;28;20388;-70
2023/07/22 04:12:58;;;;;;;1999.90;999.90;;;15.00;99.90;;;;;;5032612;28;20030;-70
2023/07/22 04:15:23;;;;;;;1999.90;999.90;;;15.00;99.90;;;;;;5032625;28;20025;-69
2023/07/22 04:17:49;;;;;;;1999.90;999.90;;;14.90;99.90;;;;;;5032818;28;20033;-70
2023/07/22 04:20:15;;;;;;;1999.90;999.90;;;14.80;99.90;;;;;;5032651;28;20033;-70
2023/07/22 04:22:41;;;;;;;1999.90;999.90;;;14.60;99.90;;;;;;5032579;28;20396;-70
2023/07/22 04:25:07;;;;;;;1999.90;999.90;;;14.40;99.90;;;;;;5032608;28;20104;-70
2023/07/22 04:27:33;;;;;;;1999.90;999.90;;;14.30;99.90;;;;;;5032421;28;20026;-70
2023/07/22 04:29:58;;;;;;;1999.90;999.90;;;14.20;99.90;;;;;;5032402;28;20402;-72
2023/07/22 04:32:24;;;;;;;1999.90;999.90;;;14.20;99.90;;;;;;5032560;28;20384;-70
2023/07/22 04:34:49;;;;;;;1999.90;999.90;;;14.20;99.90;;;;;;5032034;28;20022;-70
2023/07/22 04:37:16;;;;;;;1999.90;999.90;;;14.20;99.90;;;;;;5031428;28;20399;-70
2023/07/22 04:39:42;;;;;;;1999.90;999.90;;;14.20;99.90;;;;;;5032852;28;20099;-72
2023/07/22 04:42:08;;;;;;;1999.90;999.90;;;14.30;99.90;;;;;;5032247;28;20508;-72
2023/07/22 04:44:33;;;;;;;1999.90;999.90;;;14.30;99.90;;;;;;5034347;28;20025;-71
2023/07/22 04:46:59;;;;;;;1999.90;999.90;;;14.30;99.90;;;;;;5035923;28;20492;-70
2023/07/22 04:49:25;;;;;;;1999.90;999.90;;;14.40;99.90;;;;;;5018004;28;20400;-70
2023/07/22 04:51:51;;;;;;;1999.90;999.90;;;14.50;99.90;;;;;;5036026;28;20029;-72
2023/07/22 04:54:17;;;;;;;1999.90;999.90;;;14.50;99.90;;;;;;5036128;28;20033;-70
2023/07/22 04:56:43;;;;;;;1999.90;999.90;;;14.60;99.90;;;;;;5036161;28;20014;-70
2023/07/22 04:59:09;;;;;;;1999.90;999.90;;;14.70;99.90;;;;;;5035765;28;20033;-70
2023/07/22 05:01:35;;;;;;;1999.90;999.90;;;14.70;99.90;;;;;;5035792;28;20033;-72
2023/07/22 05:04:01;;;;;;;1999.90;999.90;;;14.70;99.90;;;;;;5035893;28;20014;-72
2023/07/22 05:06:28;;;;;;;1999.90;999.90;;;14.70;99.90;;;;;;5035898;28;20029;-70
2023/07/22 05:08:53;;;;;;;1999.90;999.90;;;14.80;99.90;;;;;;5035611;28;20026;-72
2023/07/22 05:11:19;;;;;;;1999.90;999.90;;;14.80;99.90;;;;;;5017507;28;20036;-70
2023/07/22 05:13:45;;;;;;;1999.90;999.90;;;14.90;99.90;;;;;;5017694;28;20392;-70
2023/07/22 05:16:10;;;;;;;1999.90;999.90;;;15.00;99.90;;;;;;5035547;28;20100;-70
2023/07/22 05:18:38;;;;;;;1999.90;999.90;;;15.10;99.90;;;;;;5017060;28;20029;-70
2023/07/22 05:21:04;;;;;;;1999.90;999.90;;;15.20;99.90;;;;;;5035560;28;20046;-71
2023/07/22 05:23:29;;;;;;;1999.90;999.90;;;15.30;99.90;;;;;;5035342;28;20060;-70
2023/07/22 05:25:55;;;;;;;1999.90;999.90;;;15.30;99.90;;;;;;5035206;28;20025;-70
2023/07/22 05:28:20;;;;;;;1999.90;999.90;;;15.30;99.90;;;;;;5035184;28;20091;-70
2023/07/22 05:30:46;;;;;;;1999.90;999.90;;;15.40;99.90;;;;;;5035499;28;20022;-72
2023/07/22 05:33:12;;;;;;;1999.90;999.90;;;15.50;99.90;;;;;;5034901;28;20100;-72
2023/07/22 05:35:37;;;;;;;1999.90;999.90;;;15.70;99.90;;;;;;5035160;28;20062;-70
2023/07/22 05:38:04;;;;;;;1999.90;999.90;;;15.70;99.90;;;;;;5034553;28;20029;-72
2023/07/22 05:40:30;;;;;;;1999.90;999.90;;;15.80;99.90;;;;;;5035063;28;20030;-70
2023/07/22 05:42:56;;;;;;;1999.90;999.90;;;15.90;99.90;;;;;;5034842;28;20072;-71
2023/07/22 05:45:21;;;;;;;1999.90;999.90;;;16.00;99.90;;;;;;5034852;28;20030;-70
2023/07/22 05:47:47;;;;;;;1999.90;999.90;;;16.10;99.90;;;;;;5034004;28;20091;-70
2023/07/22 05:50:13;;;;;;;1999.90;999.90;;;16.20;99.90;;;;;;5034517;28;20503;-70
2023/07/22 05:52:38;;;;;;;1999.90;999.90;;;16.30;99.90;;;;;;5017025;28;20025;-70
2023/07/22 05:55:04;;;;;;;1999.90;999.90;;;16.30;99.90;;;;;;5034256;28;20022;-70
2023/07/22 05:57:31;;;;;;;1999.90;999.90;;;16.40;99.90;;;;;;5034422;28;20083;-72
2023/07/22 05:59:56;;;;;;;1999.90;999.90;;;16.40;99.90;;;;;;5034699;28;20022;-72
2023/07/22 06:02:22;;;;;;;1999.90;999.90;;;16.50;99.90;;;;;;5034733;28;20499;-70
2023/07/22 06:04:48;;;;;;;1999.90;999.90;;;16.50;99.90;;;;;;5017034;28;20025;-70
2023/07/22 06:07:13;;;;;;;1999.90;999.90;;;16.60;99.90;;;;;;5034571;28;20427;-70
2023/07/22 06:09:39;;;;;;;1999.90;999.90;;;16.70;99.90;;;;;;5034411;28;20407;-70
2023/07/22 06:12:05;;;;;;;1999.90;999.90;;;16.80;99.90;;;;;;5033977;28;20040;-72
2023/07/22 06:14:30;;;;;;;1999.90;999.90;;;16.90;99.90;;;;;;5034022;28;20021;-70
2023/07/22 06:16:56;;;;;;;1999.90;999.90;;;17.00;99.90;;;;;;5016496;28;20034;-70
2023/07/22 06:19:23;;;;;;;1999.90;999.90;;;17.00;99.90;;;;;;5034445;28;20025;-70
2023/07/22 06:21:49;;;;;;;1999.90;999.90;;;17.10;99.90;;;;;;5033785;28;20453;-70
2023/07/22 06:24:15;;;;;;;1999.90;999.90;;;17.20;99.90;;;;;;5034063;28;20041;-73
2023/07/22 06:26:40;;;;;;;1999.90;999.90;;;17.30;99.90;;;;;;5034266;28;20056;-73
2023/07/22 06:29:06;;;;;;;1999.90;999.90;;;17.40;99.90;;;;;;5033829;28;20550;-70
2023/07/22 06:31:32;;;;;;;1999.90;999.90;;;17.40;99.90;;;;;;5034172;28;20421;-70
2023/07/22 06:33:59;;;;;;;1999.90;999.90;;;17.50;99.90;;;;;;5033913;28;20063;-70
2023/07/22 06:36:25;;;;;;;1999.90;999.90;;;17.60;99.90;;;;;;5033323;28;20019;-70
2023/07/22 06:38:51;;;;;;;1999.90;999.90;;;17.70;99.90;;;;;;5016147;28;20030;-72
2023/07/22 06:41:17;;;;;;;1999.90;999.90;;;17.80;99.90;;;;;;5016129;28;20034;-70
2023/07/22 06:43:43;;;;;;;1999.90;999.90;;;18.00;99.90;;;;;;5033738;28;20046;-72
2023/07/22 06:46:08;;;;;;;1999.90;999.90;;;18.10;99.90;;;;;;5033839;28;20034;-70
2023/07/22 06:48:34;;;;;;;1999.90;999.90;;;18.10;99.90;;;;;;5016054;28;20030;-71
2023/07/22 06:51:00;;;;;;;1999.90;999.90;;;18.30;99.90;;;;;;5015855;28;20055;-72
2023/07/22 06:53:25;;;;;;;1999.90;999.90;;;18.40;99.90;;;;;;5033914;28;20032;-70
2023/07/22 06:55:52;;;;;;;1999.90;999.90;;;18.50;99.90;;;;;;5033789;28;20033;-70
2023/07/22 06:58:19;;;;;;;1999.90;999.90;;;18.60;99.90;;;;;;5015963;28;20025;-70
2023/07/22 07:00:44;;;;;;;1999.90;999.90;;;18.70;99.90;;;;;;5033703;28;20029;-70
2023/07/22 07:03:11;;;;;;;1999.90;999.90;;;18.80;99.90;;;;;;5033499;28;20451;-72
2023/07/22 07:05:36;;;;;;;1999.90;999.90;;;18.90;99.90;;;;;;5033849;28;20056;-72
2023/07/22 07:08:03;;;;;;;1999.90;999.90;;;19.00;99.90;;;;;;5033342;28;20475;-71
2023/07/22 07:10:29;;;;;;;1999.90;999.90;;;19.10;99.90;;;;;;5033046;28;20022;-70
2023/07/22 07:12:54;;;;;;;1999.90;999.90;;;19.20;99.90;;;;;;5033628;28;20109;-70
2023/07/22 07:15:20;;;;;;;1999.90;999.90;;;19.50;99.90;;;;;;5033125;28;20469;-70
2023/07/22 07:17:46;;;;;;;1999.90;999.90;;;19.90;99.90;;;;;;5033253;28;20075;-72
2023/07/22 07:20:14;;;;;;;1999.90;999.90;;;20.30;99.90;;;;;;5032813;28;20037;-70
2023/07/22 07:22:39;;;;;;;1999.90;999.90;;;20.20;99.90;;;;;;5014803;28;20036;-72
2023/07/22 07:25:05;;;;;;;1999.90;999.90;;;20.10;99.90;;;;;;5033069;28;20496;-70
2023/07/22 07:27:31;;;;;;;1999.90;999.90;;;20.10;99.90;;;;;;5033391;28;20158;-71
2023/07/22 07:29:57;;;;;;;1999.90;999.90;;;20.00;99.90;;;;;;5032944;28;20025;-72
2023/07/22 07:32:23;;;;;;;1999.90;999.90;;;20.00;99.90;;;;;;5033436;28;20044;-72
2023/07/22 07:34:49;;;;;;;1999.90;999.90;;;20.10;99.90;;;;;;5015056;28;20025;-71
2023/07/22 07:37:15;;;;;;;1999.90;999.90;;;20.00;99.90;;;;;;5032249;28;20037;-70
2023/07/22 07:39:40;;;;;;;1999.90;999.90;;;20.00;99.90;;;;;;5033448;28;20037;-72
2023/07/22 07:42:06;;;;;;;1999.90;999.90;;;20.30;99.90;;;;;;5032709;28;20079;-72
2023/07/22 07:44:31;;;;;;;1999.90;999.90;;;20.80;99.90;;;;;;5032827;28;20037;-72
2023/07/22 07:46:57;;;;;;;1999.90;999.90;;;21.90;99.90;;;;;;5032736;28;20021;-70
2023/07/22 07:49:23;;;;;;;1999.90;999.90;;;24.70;99.90;;;;;;5032572;28;20521;-71
2023/07/22 07:51:48;;;;;;;1999.90;999.90;;;26.30;99.90;;;;;;5015124;28;20022;-70
2023/07/22 07:54:14;;;;;;;1999.90;999.90;;;25.50;99.90;;;;;;5032560;28;20049;-72
2023/07/22 07:56:40;;;;;;;1999.90;999.90;;;23.70;99.90;;;;;;5015081;28;20031;-70
2023/07/22 07:59:08;;;;;;;1999.90;999.90;;;24.90;99.90;;;;;;5032558;28;20108;-70
2023/07/22 08:01:35;;;;;;;1999.90;999.90;;;24.50;99.90;;;;;;5032558;28;20021;-70
2023/07/22 08:04:01;;;;;;;1999.90;999.90;;;23.30;99.90;;;;;;5032862;28;20584;-70
2023/07/22 08:06:26;;;;;;;1999.90;999.90;;;22.70;99.90;;;;;;5032985;28;20085;-71
2023/07/22 08:08:52;;;;;;;1999.90;999.90;;;22.60;99.90;;;;;;5032690;28;20029;-72
2023/07/22 08:11:18;;;;;;;1999.90;999.90;;;22.30;99.90;;;;;;5032299;28;20388;-70
2023/07/22 08:13:44;;;;;;;1999.90;999.90;;;21.80;99.90;;;;;;5014800;28;20052;-70
2023/07/22 08:16:12;;;;;;;1999.90;999.90;;;23.60;99.90;;;;;;5032643;28;20039;-70
2023/07/22 08:18:38;;;;;;;1999.90;999.90;;;27.00;99.90;;;;;;5033258;28;20076;-71
2023/07/22 08:21:06;;;;;;;1999.90;999.90;;;28.70;99.90;;;;;;5036650;28;20029;-73
2023/07/22 08:23:32;;;;;;;1999.90;999.90;;;28.40;99.90;;;;;;5036682;28;20440;-73
2023/07/22 08:25:58;;;;;;;1999.90;999.90;;;29.20;99.90;;;;;;5036372;28;20097;-71
2023/07/22 08:28:23;;;;;;;1999.90;999.90;;;29.40;99.90;;;;;;5036321;28;20029;-71
2023/07/22 08:30:49;;;;;;;1999.90;999.90;;;29.60;99.90;;;;;;5018532;28;20030;-70
2023/07/22 08:33:16;;;;;;;1999.90;999.90;;;28.10;99.90;;;;;;5036057;28;20017;-72
2023/07/22 08:35:41;;;;;;;1999.90;999.90;;;28.50;99.90;;;;;;5035997;28;20075;-73
2023/07/22 08:38:08;;;;;;;1999.90;999.90;;;26.20;99.90;;;;;;5017276;28;20021;-71
2023/07/22 08:40:39;;;;;;;1999.90;999.90;;;28.30;99.90;;;;;;5018400;28;20036;-71
2023/07/22 08:43:06;;;;;;;1999.90;999.90;;;30.10;99.90;;;;;;5035709;28;20041;-71
2023/07/22 08:45:36;;;;;;;1999.90;999.90;;;30.30;99.90;;;;;;5018217;28;20029;-70
2023/07/22 08:48:07;;;;;;;1999.90;999.90;;;27.20;99.90;;;;;;5035675;28;20026;-70
2023/07/22 08:50:55;;;;;;;1999.90;999.90;;;26.30;99.90;;;;;;5035904;28;20392;-71
2023/07/22 08:53:21;;;;;;;1999.90;999.90;;;25.40;99.90;;;;;;5035297;28;20061;-70
2023/07/22 08:55:50;;;;;;;1999.90;999.90;;;24.50;99.90;;;;;;5035792;28;20092;-70
2023/07/22 08:58:16;;;;;;;1999.90;999.90;;;24.50;99.90;;;;;;5035899;28;20496;-71
2023/07/22 09:00:42;;;;;;;1999.90;999.90;;;27.50;99.90;;;;;;5017829;28;20112;-73
2023/07/22 09:03:10;;;;;;;1999.90;999.90;;;29.00;99.90;;;;;;5035925;28;20370;-70
2023/07/22 09:05:36;;;;;;;1999.90;999.90;;;27.90;99.90;;;;;;5018155;28;20438;-71
2023/07/22 09:08:04;;;;;;;1999.90;999.90;;;29.00;99.90;;;;;;5017829;28;20116;-71
2023/07/22 09:10:30;;;;;;;1999.90;999.90;;;29.00;99.90;;;;;;5035199;28;20025;-70
2023/07/22 09:12:58;;;;;;;1999.90;999.90;;;28.10;99.90;;;;;;5035855;28;20022;-73
2023/07/22 09:15:25;;;;;;;1999.90;999.90;;;29.60;99.90;;;;;;5035607;28;20075;-73
2023/07/22 09:17:51;;;;;;;1999.90;999.90;;;30.50;99.90;;;;;;5035486;28;20022;-71
2023/07/22 09:20:16;;;;;;;1999.90;999.90;;;31.80;98.70;;;;;;5034658;28;20040;-70
2023/07/22 09:22:50;;;;;;;1999.90;999.90;;;31.20;97.50;;;;;;5035292;28;20025;-70
2023/07/22 09:25:21;;;;;;;1999.90;999.90;;;31.60;97.20;;;;;;5035138;28;20036;-72
2023/07/22 09:27:48;;;;;;;1999.90;999.90;;;32.40;96.60;;;;;;5017576;28;20431;-72
2023/07/22 09:30:28;;;;;;;1999.90;999.90;;;32.50;95.50;;;;;;5016056;28;20072;-71
2023/07/22 09:32:56;;;;;;;1999.90;999.90;;;32.20;95.00;;;;;;5035177;28;20441;-71
2023/07/22 09:35:24;;;;;;;1999.90;999.90;;;32.10;95.80;;;;;;5015192;28;20064;-72
2023/07/22 09:37:49;;;;;;;1999.90;999.90;;;33.00;95.80;;;;;;5032572;28;20441;-71
2023/07/22 09:40:23;;;;;;;1999.90;999.90;;;32.80;95.40;;;;;;5034866;28;20108;-73
2023/07/22 09:42:57;;;;;;;1999.90;999.90;;;32.10;95.90;;;;;;5035217;28;20527;-73
2023/07/22 09:45:25;;;;;;;1999.90;999.90;;;33.00;95.40;;;;;;5034853;28;20021;-71
2023/07/22 09:47:52;;;;;;;1999.90;999.90;;;32.80;95.00;;;;;;5035291;28;20025;-71
2023/07/22 09:50:21;;;;;;;1999.90;999.90;;;32.00;95.50;;;;;;5034513;28;20428;-72
2023/07/22 09:52:49;;;;;;;1999.90;999.90;;;31.70;95.80;;;;;;5035010;28;20041;-73
2023/07/22 09:55:17;;;;;;;1999.90;999.90;;;31.30;96.10;;;;;;5034725;28;20026;-73
2023/07/22 09:57:45;;;;;;;1999.90;999.90;;;31.40;96.20;;;;;;5016830;28;20488;-71
2023/07/22 10:00:16;;;;;;;1999.90;999.90;;;31.00;96.00;;;;;;5034930;28;20029;-71
2023/07/22 10:02:43;;;;;;;1999.90;999.90;;;31.10;96.10;;;;;;5016786;28;20029;-71
2023/07/22 10:05:15;;;;;;;1999.90;999.90;;;29.60;96.60;;;;;;5034579;28;20052;-73
2023/07/22 10:07:45;;;;;;;1999.90;999.90;;;28.30;99.60;;;;;;5034827;28;20028;-71
2023/07/22 10:10:12;;;;;;;1999.90;999.90;;;29.30;99.30;;;;;;5013061;28;20087;-71
2023/07/22 10:12:40;;;;;;;1999.90;999.90;;;28.00;99.90;;;;;;4997147;28;20021;-71
2023/07/22 10:15:07;;;;;;;1999.90;999.90;;;27.30;99.90;;;;;;5014596;28;20018;-69
2023/07/22 10:17:34;;;;;;;1999.90;999.90;;;26.40;99.90;;;;;;5014559;28;20029;-71
2023/07/22 10:19:59;;;;;;;1999.90;999.90;;;26.40;99.90;;;;;;5014639;28;20036;-70
2023/07/22 10:22:27;;;;;;;1999.90;999.90;;;26.50;99.90;;;;;;5014353;28;20034;-71
2023/07/22 10:24:55;;;;;;;1999.90;999.90;;;27.10;99.90;;;;;;5021597;28;20025;-72
2023/07/22 10:27:21;;;;;;;1999.90;999.90;;;27.70;99.90;;;;;;5034199;28;20108;-71
2023/07/22 10:29:47;;;;;;;1999.90;999.90;;;27.20;99.90;;;;;;5034230;28;20021;-71
2023/07/22 10:32:12;;;;;;;1999.90;999.90;;;27.70;99.90;;;;;;5034053;28;20097;-71
2023/07/22 10:34:38;;;;;;;1999.90;999.90;;;27.50;99.90;;;;;;5033872;28;20370;-71
2023/07/22 10:37:04;;;;;;;1999.90;999.90;;;27.00;99.90;;;;;;5015302;28;20062;-71
2023/07/22 10:39:30;;;;;;;1999.90;999.90;;;27.00;99.90;;;;;;5034461;28;20033;-70
2023/07/22 10:42:04;;;;;;;1999.90;999.90;;;26.80;99.90;;;;;;5015649;28;20400;-72
2023/07/22 10:44:37;;;;;;;1999.90;999.90;;;26.40;99.90;;;;;;5016117;28;20033;-73
2023/07/22 10:47:07;;;;;;;1999.90;999.90;;;26.60;99.90;;;;;;5033606;28;20396;-73
2023/07/22 10:49:48;;;;;;;1999.90;999.90;;;26.90;99.90;;;;;;5033853;28;20019;-70
2023/07/22 10:52:16;;;;;;;1999.90;999.90;;;27.00;99.90;;;;;;5033931;28;20022;-70
2023/07/22 10:54:42;;;;;;;1999.90;999.90;;;28.00;99.90;;;;;;5033857;28;20392;-71
2023/07/22 10:57:17;;;;;;;1999.90;999.90;;;28.10;99.90;;;;;;5033534;28;20036;-70
2023/07/22 10:59:55;;;;;;;1999.90;999.90;;;28.50;99.90;;;;;;5033659;28;20033;-70
2023/07/22 11:02:25;;;;;;;1999.90;999.90;;;29.40;99.90;;;;;;5033587;28;20029;-70
2023/07/22 11:04:50;;;;;;;1999.90;999.90;;;29.70;99.70;;;;;;5033733;28;20503;-71
2023/07/22 11:07:30;;;;;;;1999.90;999.90;;;29.70;99.40;;;;;;5016112;28;20068;-71
2023/07/22 11:09:56;;;;;;;1999.90;999.90;;;28.90;99.60;;;;;;5033228;28;20021;-73
2023/07/22 11:12:25;;;;;;;1999.90;999.90;;;27.70;99.90;;;;;;5033499;28;20030;-74
2023/07/22 11:14:52;;;;;;;1999.90;999.90;;;27.60;99.90;;;;;;5015399;28;20034;-70
2023/07/22 11:17:29;;;;;;;1999.90;999.90;;;27.40;99.90;;;;;;5033379;28;20018;-71
2023/07/22 11:19:56;;;;;;;1999.90;999.90;;;27.30;99.90;;;;;;5032897;28;20018;-73
2023/07/22 11:22:22;;;;;;;1999.90;999.90;;;26.80;99.90;;;;;;5033210;28;20021;-70
2023/07/22 11:24:49;;;;;;;1999.90;999.90;;;26.10;99.90;;;;;;5015757;28;20458;-71
2023/07/22 11:27:15;;;;;;;1999.90;999.90;;;25.70;99.90;;;;;;5033319;28;20025;-71
2023/07/22 11:29:41;;;;;;;1999.90;999.90;;;25.90;99.90;;;;;;5033257;28;20457;-71
2023/07/22 11:32:15;;;;;;;1999.90;999.90;;;26.50;99.90;;;;;;5033237;28;20049;-70
2023/07/22 11:34:41;;;;;;;1999.90;999.90;;;26.90;99.90;;;;;;5032699;28;20476;-71
2023/07/22 11:37:06;;;;;;;1999.90;999.90;;;26.40;99.90;;;;;;5032143;28;20071;-74
2023/07/22 11:39:32;;;;;;;1999.90;999.90;;;26.60;99.90;;;;;;5033514;28;20042;-72
2023/07/22 11:42:01;;;;;;;1999.90;999.90;;;27.40;99.90;;;;;;5032894;28;20026;-70
2023/07/22 11:44:28;;;;;;;1999.90;999.90;;;27.00;99.90;;;;;;5015135;28;20037;-70
2023/07/22 11:47:07;;;;;;;1999.90;999.90;;;27.00;99.90;;;;;;5032637;28;20079;-71
2023/07/22 11:49:47;;;;;;;1999.90;999.90;;;27.60;99.90;;;;;;5032644;28;20493;-71
2023/07/22 11:52:20;;;;;;;1999.90;999.90;;;26.90;99.90;;;;;;5033194;28;20068;-72
2023/07/22 11:54:47;;;;;;;1999.90;999.90;;;27.00;99.90;;;;;;5014387;28;20377;-73
2023/07/22 11:57:22;;;;;;;1999.90;999.90;;;28.30;99.90;;;;;;5032757;28;20442;-70